Time;durP1;ratioP1;P1;durP2;ratioP2;P2;SDS_P1;SDS_P2;PMS_P1;PMS_P2;Temp;Humidity;BMP_temperature;BMP_pressure;BME280_temperature;BME280_humidity;BME280_pressure;Samples;Min_cycle;Max_cycle;Signal;HPM_P1;HPM_P2
2022/03/15 00:00:28;;;;;;;54.38;17.70;;;4.20;99.90;;;;;;5012357;28;20061;-74
2022/03/15 00:02:56;;;;;;;49.90;15.80;;;4.20;99.90;;;;;;5013752;28;20046;-74
2022/03/15 00:05:23;;;;;;;46.03;16.85;;;4.30;99.90;;;;;;4996562;28;20060;-74
2022/03/15 00:07:49;;;;;;;57.40;18.90;;;4.30;99.90;;;;;;4996258;28;20053;-75
2022/03/15 00:10:15;;;;;;;49.90;17.38;;;4.30;99.90;;;;;;5012787;28;20054;-75
2022/03/15 00:12:45;;;;;;;58.30;17.63;;;4.30;99.90;;;;;;4996257;28;20085;-81
2022/03/15 00:15:12;;;;;;;54.17;16.27;;;4.40;99.90;;;;;;5013786;28;20057;-78
2022/03/15 00:17:39;;;;;;;42.03;16.27;;;4.40;99.90;;;;;;5012470;28;20085;-76
2022/03/15 00:20:07;;;;;;;49.58;16.77;;;4.50;99.90;;;;;;5012997;28;20096;-76
2022/03/15 00:22:35;;;;;;;49.60;15.77;;;4.50;99.90;;;;;;5012272;28;20383;-75
2022/03/15 00:25:06;;;;;;;45.55;15.82;;;4.50;99.90;;;;;;4996355;28;20407;-74
2022/03/15 00:27:33;;;;;;;49.97;15.80;;;4.50;99.90;;;;;;5014229;28;20351;-77
2022/03/15 00:30:00;;;;;;;44.05;15.52;;;4.60;99.90;;;;;;4995703;28;20482;-75
2022/03/15 00:32:26;;;;;;;44.50;14.70;;;4.50;99.90;;;;;;5012043;28;20494;-76
2022/03/15 00:34:52;;;;;;;39.35;14.00;;;4.50;99.90;;;;;;5012164;28;20054;-75
2022/03/15 00:37:18;;;;;;;40.33;14.27;;;4.50;99.90;;;;;;5011589;28;20128;-74
2022/03/15 00:39:44;;;;;;;41.25;14.60;;;4.40;99.90;;;;;;4995840;28;20058;-81
2022/03/15 00:42:10;;;;;;;46.27;14.47;;;4.40;99.90;;;;;;5012574;28;20076;-75
2022/03/15 00:44:36;;;;;;;48.72;14.80;;;4.30;99.90;;;;;;5011814;28;20284;-74
2022/03/15 00:47:03;;;;;;;45.40;13.95;;;4.30;99.90;;;;;;5013067;28;20056;-75
2022/03/15 00:49:28;;;;;;;38.25;12.18;;;4.20;99.90;;;;;;4995699;28;20053;-75
2022/03/15 00:51:54;;;;;;;35.08;12.57;;;4.10;99.90;;;;;;4996009;28;20042;-79
2022/03/15 00:54:21;;;;;;;37.13;12.20;;;4.10;99.90;;;;;;4979562;28;20083;-75
2022/03/15 00:56:47;;;;;;;41.08;12.57;;;4.10;99.90;;;;;;4995560;28;20049;-82
2022/03/15 00:59:15;;;;;;;38.72;12.82;;;4.10;99.90;;;;;;4995431;28;20049;-74
2022/03/15 01:01:41;;;;;;;38.08;13.20;;;4.10;99.90;;;;;;5011626;28;20053;-75
2022/03/15 01:04:07;;;;;;;46.75;13.82;;;4.10;99.90;;;;;;5012646;28;20111;-75
2022/03/15 01:06:34;;;;;;;43.00;13.60;;;4.20;99.90;;;;;;5011635;28;20129;-75
2022/03/15 01:09:01;;;;;;;49.50;14.38;;;4.20;99.90;;;;;;4995356;28;20121;-75
2022/03/15 01:11:26;;;;;;;39.00;14.82;;;4.30;99.90;;;;;;5011052;28;20132;-75
2022/03/15 01:13:52;;;;;;;48.28;14.65;;;4.30;99.90;;;;;;4995207;28;20505;-75
2022/03/15 01:16:18;;;;;;;42.67;14.73;;;4.30;99.90;;;;;;5011518;28;20045;-75
2022/03/15 01:18:44;;;;;;;42.72;14.05;;;4.20;99.90;;;;;;5012164;28;20191;-76
2022/03/15 01:21:13;;;;;;;40.70;14.23;;;4.20;99.90;;;;;;4995667;28;20081;-76
2022/03/15 01:23:40;;;;;;;47.30;14.70;;;4.20;99.90;;;;;;5011663;28;20100;-76
2022/03/15 01:26:06;;;;;;;42.35;13.48;;;4.10;99.90;;;;;;4995215;28;20089;-76
2022/03/15 01:28:32;;;;;;;50.72;15.20;;;4.10;99.90;;;;;;5012893;28;20093;-76
2022/03/15 01:30:57;;;;;;;45.83;14.20;;;4.00;99.90;;;;;;5012603;28;20049;-76
2022/03/15 01:33:23;;;;;;;44.42;15.27;;;4.00;99.90;;;;;;4994813;28;20510;-78
2022/03/15 01:35:49;;;;;;;47.67;15.38;;;3.90;99.90;;;;;;5012315;28;20057;-81
2022/03/15 01:38:15;;;;;;;48.50;16.88;;;3.90;99.90;;;;;;5012650;28;20076;-74
2022/03/15 01:40:41;;;;;;;51.65;17.20;;;3.80;99.90;;;;;;5011193;28;20092;-75
2022/03/15 01:43:07;;;;;;;52.03;16.50;;;3.80;99.90;;;;;;4994998;28;20069;-76
2022/03/15 01:45:39;;;;;;;52.58;16.77;;;3.80;99.90;;;;;;5011262;28;20046;-75
2022/03/15 01:48:06;;;;;;;50.72;17.33;;;3.80;99.90;;;;;;4995132;28;20050;-75
2022/03/15 01:50:32;;;;;;;54.10;17.45;;;3.60;99.90;;;;;;5012481;28;20042;-75
2022/03/15 01:52:58;;;;;;;54.97;18.02;;;3.70;99.90;;;;;;5011309;28;20103;-75
2022/03/15 01:55:24;;;;;;;58.03;17.50;;;3.70;99.90;;;;;;4994706;28;20155;-75
2022/03/15 01:57:50;;;;;;;62.38;18.80;;;3.70;99.90;;;;;;5011299;28;20053;-75
2022/03/15 02:00:18;;;;;;;57.50;18.92;;;3.80;99.90;;;;;;5010701;28;20046;-77
2022/03/15 02:02:45;;;;;;;63.97;20.52;;;3.70;99.90;;;;;;5012287;28;20054;-75
2022/03/15 02:05:11;;;;;;;72.85;21.77;;;3.80;99.90;;;;;;5013641;28;20050;-75
2022/03/15 02:07:38;;;;;;;65.22;20.45;;;3.90;99.90;;;;;;4983002;28;20512;-75
2022/03/15 02:10:06;;;;;;;73.03;23.10;;;3.90;99.90;;;;;;5014287;28;20046;-73
2022/03/15 02:12:36;;;;;;;62.30;19.85;;;4.00;99.90;;;;;;4998692;28;20048;-73
2022/03/15 02:15:04;;;;;;;73.03;21.27;;;4.00;99.90;;;;;;4983304;28;20062;-73
2022/03/15 02:17:30;;;;;;;73.43;22.00;;;4.00;99.90;;;;;;5016602;28;20045;-73
2022/03/15 02:19:56;;;;;;;70.63;22.67;;;4.00;99.90;;;;;;4982189;28;20458;-74
2022/03/15 02:22:22;;;;;;;85.57;23.35;;;4.00;99.90;;;;;;5015734;28;20049;-73
2022/03/15 02:24:49;;;;;;;73.68;23.90;;;3.90;99.90;;;;;;4983462;28;20050;-74
2022/03/15 02:27:15;;;;;;;81.88;26.30;;;3.90;99.90;;;;;;5016037;28;20481;-74
2022/03/15 02:29:41;;;;;;;85.05;26.33;;;3.90;99.90;;;;;;4998850;28;20084;-73
2022/03/15 02:32:07;;;;;;;72.63;24.85;;;3.90;99.90;;;;;;4982324;28;20046;-74
2022/03/15 02:34:34;;;;;;;80.93;26.43;;;3.90;99.90;;;;;;4997955;28;20056;-75
2022/03/15 02:37:00;;;;;;;84.50;25.38;;;3.90;99.90;;;;;;5013894;28;20380;-75
2022/03/15 02:39:26;;;;;;;76.07;26.48;;;3.90;99.90;;;;;;5015563;28;20054;-74
2022/03/15 02:41:52;;;;;;;83.47;27.67;;;3.80;99.90;;;;;;4998502;28;20052;-74
2022/03/15 02:44:18;;;;;;;81.20;26.90;;;3.80;99.90;;;;;;5014972;28;20061;-73
2022/03/15 02:46:48;;;;;;;90.22;28.33;;;3.80;99.90;;;;;;4982726;28;20056;-74
2022/03/15 02:49:14;;;;;;;86.13;28.30;;;3.70;99.90;;;;;;5014797;28;20077;-74
2022/03/15 02:51:40;;;;;;;91.05;29.25;;;3.70;99.90;;;;;;5015553;28;20081;-74
2022/03/15 02:54:11;;;;;;;85.75;28.45;;;3.70;99.90;;;;;;4999088;28;20141;-75
2022/03/15 02:56:45;;;;;;;95.95;31.15;;;3.60;99.90;;;;;;5015123;28;20049;-73
2022/03/15 02:59:14;;;;;;;92.70;29.17;;;3.60;99.90;;;;;;5016065;28;20124;-74
2022/03/15 03:01:48;;;;;;;104.93;31.85;;;3.50;99.90;;;;;;4983171;28;20038;-73
2022/03/15 03:04:15;;;;;;;101.18;30.33;;;3.60;99.90;;;;;;5017195;28;20065;-74
2022/03/15 03:06:42;;;;;;;112.25;32.83;;;3.60;99.90;;;;;;5016332;28;20128;-74
2022/03/15 03:09:09;;;;;;;101.40;32.88;;;3.60;99.90;;;;;;4999063;28;20054;-74
2022/03/15 03:11:35;;;;;;;87.78;31.15;;;3.60;99.90;;;;;;5014270;28;20103;-74
2022/03/15 03:14:01;;;;;;;100.85;31.10;;;3.60;99.90;;;;;;4981917;28;20049;-78
2022/03/15 03:16:29;;;;;;;92.47;31.70;;;3.50;99.90;;;;;;4996812;28;20046;-75
2022/03/15 03:18:57;;;;;;;93.85;31.42;;;3.50;99.90;;;;;;5015877;28;20060;-75
2022/03/15 03:21:26;;;;;;;104.30;31.52;;;3.50;99.90;;;;;;5014336;28;20057;-75
2022/03/15 03:23:53;;;;;;;106.30;31.92;;;3.50;99.90;;;;;;5014806;28;20056;-73
2022/03/15 03:26:24;;;;;;;96.75;32.35;;;3.50;99.90;;;;;;5014791;28;20049;-75
2022/03/15 03:28:51;;;;;;;93.43;28.98;;;3.60;99.90;;;;;;5016043;28;20042;-75
2022/03/15 03:31:17;;;;;;;91.90;28.75;;;3.60;99.90;;;;;;5014682;28;20088;-74
2022/03/15 03:33:43;;;;;;;90.60;29.52;;;3.60;99.90;;;;;;5016448;28;20056;-74
2022/03/15 03:36:09;;;;;;;103.38;28.52;;;3.60;99.90;;;;;;5016365;28;20061;-75
2022/03/15 03:38:36;;;;;;;92.35;30.70;;;3.60;99.90;;;;;;5015987;28;20085;-74
2022/03/15 03:41:04;;;;;;;95.00;29.92;;;3.60;99.90;;;;;;4998934;28;20085;-76
2022/03/15 03:43:31;;;;;;;89.28;29.20;;;3.60;99.90;;;;;;5017244;28;20106;-73
2022/03/15 03:45:59;;;;;;;92.53;30.00;;;3.70;99.90;;;;;;4984279;28;20424;-75
2022/03/15 03:48:26;;;;;;;103.03;30.75;;;3.60;99.90;;;;;;4999486;28;20387;-72
2022/03/15 03:50:53;;;;;;;91.25;30.08;;;3.70;99.90;;;;;;5015490;28;20402;-74
2022/03/15 03:53:21;;;;;;;90.05;29.63;;;3.70;99.90;;;;;;5014788;28;20485;-74
2022/03/15 03:55:47;;;;;;;91.03;28.30;;;3.70;99.90;;;;;;5015413;28;20397;-75
2022/03/15 03:58:13;;;;;;;93.22;29.13;;;3.70;99.90;;;;;;4997311;28;20050;-75
2022/03/15 04:00:39;;;;;;;93.20;29.63;;;3.70;99.90;;;;;;5013308;28;20057;-74
2022/03/15 04:03:05;;;;;;;89.50;29.85;;;3.80;99.90;;;;;;5013755;28;20058;-78
2022/03/15 04:05:33;;;;;;;80.05;27.73;;;3.80;99.90;;;;;;5014698;28;20050;-75
2022/03/15 04:07:59;;;;;;;90.95;29.33;;;3.80;99.90;;;;;;5013137;28;20072;-75
2022/03/15 04:10:30;;;;;;;87.57;29.08;;;3.80;99.90;;;;;;4997598;28;20380;-75
2022/03/15 04:12:57;;;;;;;79.05;27.73;;;3.90;99.90;;;;;;5013416;28;20054;-74
2022/03/15 04:15:23;;;;;;;85.50;27.83;;;3.90;99.90;;;;;;5013823;28;20402;-74
2022/03/15 04:17:50;;;;;;;95.35;30.40;;;3.90;99.90;;;;;;5012805;28;20038;-73
2022/03/15 04:20:16;;;;;;;101.88;34.20;;;3.90;99.90;;;;;;4980180;28;20274;-74
2022/03/15 04:22:43;;;;;;;108.20;39.65;;;4.00;99.90;;;;;;4997125;28;20049;-73
2022/03/15 04:25:09;;;;;;;108.47;40.23;;;3.90;99.90;;;;;;4996773;28;20053;-74
2022/03/15 04:27:36;;;;;;;109.93;34.95;;;4.00;99.90;;;;;;5012255;28;20284;-75
2022/03/15 04:30:04;;;;;;;97.28;32.33;;;4.00;99.90;;;;;;5013093;28;20045;-74
2022/03/15 04:32:29;;;;;;;99.32;31.60;;;4.00;99.90;;;;;;4996884;28;20058;-74
2022/03/15 04:34:56;;;;;;;84.28;30.38;;;4.10;99.90;;;;;;4997188;28;20041;-77
2022/03/15 04:37:23;;;;;;;97.70;30.50;;;4.10;99.90;;;;;;5012630;28;20053;-73
2022/03/15 04:39:50;;;;;;;88.13;30.23;;;4.20;99.90;;;;;;5012776;28;20058;-73
2022/03/15 04:42:16;;;;;;;92.72;29.48;;;4.10;99.90;;;;;;4980554;28;20041;-74
2022/03/15 04:44:47;;;;;;;93.15;29.70;;;4.20;99.90;;;;;;5013590;28;20074;-74
2022/03/15 04:47:13;;;;;;;91.38;29.38;;;4.20;99.90;;;;;;4995886;28;20057;-74
2022/03/15 04:49:39;;;;;;;87.90;30.00;;;4.20;99.90;;;;;;4980668;28;20073;-74
2022/03/15 04:52:05;;;;;;;94.57;29.65;;;4.30;99.90;;;;;;5012369;28;20049;-74
2022/03/15 04:54:31;;;;;;;104.35;29.30;;;4.30;99.90;;;;;;4995864;28;20052;-73
2022/03/15 04:56:57;;;;;;;88.45;29.63;;;4.40;99.90;;;;;;4996052;28;20050;-73
2022/03/15 04:59:22;;;;;;;94.75;30.58;;;4.40;99.90;;;;;;5012564;28;20084;-73
2022/03/15 05:01:48;;;;;;;103.43;31.85;;;4.40;99.90;;;;;;5012109;28;20092;-74
2022/03/15 05:04:14;;;;;;;94.20;31.50;;;4.50;99.90;;;;;;5012800;28;20058;-74
2022/03/15 05:06:40;;;;;;;93.70;31.65;;;4.50;99.90;;;;;;5012917;28;20042;-74
2022/03/15 05:09:06;;;;;;;92.28;30.40;;;4.60;99.90;;;;;;5013339;28;20522;-74
2022/03/15 05:11:32;;;;;;;89.30;30.08;;;4.60;99.90;;;;;;4997328;28;20038;-74
2022/03/15 05:13:58;;;;;;;83.38;29.15;;;4.60;99.90;;;;;;5013971;28;20042;-74
2022/03/15 05:16:24;;;;;;;94.82;30.55;;;4.70;99.90;;;;;;5013994;28;20532;-74
2022/03/15 05:18:53;;;;;;;103.75;34.15;;;4.70;99.90;;;;;;5014189;28;20474;-75
2022/03/15 05:21:23;;;;;;;96.30;35.90;;;4.70;99.90;;;;;;5012398;28;20045;-74
2022/03/15 05:23:50;;;;;;;93.22;35.58;;;4.80;99.90;;;;;;5013888;28;20125;-73
2022/03/15 05:26:17;;;;;;;102.38;38.88;;;4.80;99.90;;;;;;5013641;28;20050;-72
2022/03/15 05:28:50;;;;;;;149.40;60.28;;;4.80;99.90;;;;;;5014814;28;20119;-73
2022/03/15 05:31:21;;;;;;;121.15;47.72;;;4.80;99.90;;;;;;4982076;28;20046;-74
2022/03/15 05:33:47;;;;;;;106.00;36.05;;;4.90;99.90;;;;;;5013451;28;20054;-75
2022/03/15 05:36:15;;;;;;;103.65;35.20;;;4.90;99.90;;;;;;4997706;28;20062;-72
2022/03/15 05:38:42;;;;;;;96.85;32.55;;;4.90;99.90;;;;;;4996881;28;20053;-73
2022/03/15 05:41:08;;;;;;;91.38;31.13;;;5.00;99.90;;;;;;4985561;28;20042;-74
2022/03/15 05:43:37;;;;;;;92.88;34.88;;;5.00;99.90;;;;;;5017561;28;20053;-74
2022/03/15 05:46:04;;;;;;;92.22;30.58;;;5.00;99.90;;;;;;5018379;28;20049;-73
2022/03/15 05:48:31;;;;;;;92.93;32.33;;;5.10;99.90;;;;;;5019908;28;20177;-72
2022/03/15 05:50:57;;;;;;;105.10;33.50;;;5.10;99.90;;;;;;5001390;28;20359;-72
2022/03/15 05:53:23;;;;;;;95.07;32.38;;;5.20;99.90;;;;;;5017747;28;20100;-75
2022/03/15 05:55:50;;;;;;;96.95;30.48;;;5.20;99.90;;;;;;5016736;28;20085;-73
2022/03/15 05:58:17;;;;;;;98.07;31.00;;;5.30;99.90;;;;;;5000153;28;20042;-74
2022/03/15 06:00:43;;;;;;;91.68;30.65;;;5.30;99.90;;;;;;5015839;28;20100;-72
2022/03/15 06:03:12;;;;;;;93.22;30.60;;;5.40;99.90;;;;;;4983676;28;20049;-76
2022/03/15 06:05:38;;;;;;;100.80;30.63;;;5.50;99.90;;;;;;4968052;28;20053;-73
2022/03/15 06:08:04;;;;;;;92.57;31.02;;;5.50;99.90;;;;;;5018065;28;20042;-73
2022/03/15 06:10:34;;;;;;;92.88;32.58;;;5.50;99.90;;;;;;5000748;28;20054;-73
2022/03/15 06:13:00;;;;;;;92.38;29.95;;;5.50;99.90;;;;;;5000728;28;20101;-73
2022/03/15 06:15:26;;;;;;;84.28;28.58;;;5.60;99.90;;;;;;5017382;28;20038;-75
2022/03/15 06:18:01;;;;;;;98.13;32.30;;;5.60;99.90;;;;;;4985177;28;20046;-74
2022/03/15 06:20:28;;;;;;;96.65;32.53;;;5.60;99.90;;;;;;5001047;28;20370;-75
2022/03/15 06:22:54;;;;;;;95.97;31.27;;;5.60;99.90;;;;;;4999851;28;20038;-75
2022/03/15 06:25:20;;;;;;;93.65;31.23;;;5.60;99.90;;;;;;5016910;28;20045;-74
2022/03/15 06:27:47;;;;;;;92.63;31.98;;;5.70;99.90;;;;;;5000483;28;20049;-74
2022/03/15 06:30:16;;;;;;;102.13;35.78;;;5.70;99.90;;;;;;4983624;28;20117;-74
2022/03/15 06:32:42;;;;;;;102.93;35.83;;;5.80;99.90;;;;;;4999389;28;20042;-74
2022/03/15 06:35:10;;;;;;;145.07;43.90;;;5.70;99.90;;;;;;5015055;28;20061;-75
2022/03/15 06:37:39;;;;;;;87.80;31.77;;;5.80;99.90;;;;;;5015703;28;20292;-74
2022/03/15 06:40:09;;;;;;;93.97;31.98;;;5.80;99.90;;;;;;5015362;28;20517;-78
2022/03/15 06:42:38;;;;;;;92.05;33.92;;;5.80;99.90;;;;;;5014713;28;20046;-72
2022/03/15 06:45:05;;;;;;;99.82;33.78;;;5.80;99.90;;;;;;4983209;28;20038;-75
2022/03/15 06:47:31;;;;;;;;;;;5.90;99.90;;;;;;5016678;28;20137;-74
2022/03/15 06:49:57;;;;;;;94.50;34.00;;;5.90;99.90;;;;;;4998232;28;19983;-73
2022/03/15 06:52:22;;;;;;;84.88;31.38;;;6.00;99.90;;;;;;4998289;28;20045;-74
2022/03/15 06:54:48;;;;;;;95.82;32.30;;;6.00;99.90;;;;;;5014633;28;20050;-75
2022/03/15 06:57:14;;;;;;;99.50;33.67;;;6.10;99.90;;;;;;4997987;28;20049;-75
2022/03/15 06:59:41;;;;;;;92.50;31.40;;;6.10;99.90;;;;;;5015381;28;20506;-74
2022/03/15 07:02:07;;;;;;;89.53;30.65;;;6.10;99.90;;;;;;4997150;28;20076;-75
2022/03/15 07:04:33;;;;;;;86.60;31.27;;;6.20;99.90;;;;;;5015098;28;20486;-74
2022/03/15 07:06:59;;;;;;;93.00;33.75;;;6.20;99.90;;;;;;4998017;28;20045;-75
2022/03/15 07:09:27;;;;;;;144.77;47.72;;;6.20;99.90;;;;;;5013604;28;20549;-73
2022/03/15 07:11:53;;;;;;;151.10;50.05;;;6.30;99.90;;;;;;5014505;28;20114;-73
2022/03/15 07:14:19;;;;;;;172.75;56.63;;;6.40;99.90;;;;;;5013747;28;20426;-77
2022/03/15 07:16:45;;;;;;;106.03;37.38;;;6.40;99.90;;;;;;4981710;28;20050;-74
2022/03/15 07:19:11;;;;;;;95.55;34.33;;;6.40;99.90;;;;;;4998711;28;20107;-73
2022/03/15 07:21:37;;;;;;;99.95;37.85;;;6.40;99.90;;;;;;5015958;28;20050;-76
2022/03/15 07:24:03;;;;;;;90.95;34.13;;;6.50;99.90;;;;;;5016186;28;20085;-72
2022/03/15 07:26:29;;;;;;;95.13;36.08;;;6.50;99.90;;;;;;5015644;28;20057;-72
2022/03/15 07:28:55;;;;;;;89.53;35.13;;;6.50;99.90;;;;;;5014312;28;20049;-74
2022/03/15 07:31:20;;;;;;;84.13;30.13;;;6.60;99.90;;;;;;4998974;28;20057;-73
2022/03/15 07:33:46;;;;;;;80.28;29.92;;;6.60;99.90;;;;;;5016854;28;20057;-73
2022/03/15 07:36:12;;;;;;;83.95;31.02;;;6.70;99.90;;;;;;5002106;28;20097;-74
2022/03/15 07:38:38;;;;;;;87.50;33.47;;;6.70;99.90;;;;;;5023377;28;20104;-76
2022/03/15 07:41:04;;;;;;;83.60;32.53;;;6.70;99.90;;;;;;5003766;28;20486;-74
2022/03/15 07:43:30;;;;;;;87.38;34.35;;;6.80;99.90;;;;;;5019217;28;20049;-74
2022/03/15 07:45:56;;;;;;;83.15;33.10;;;6.80;99.90;;;;;;5016397;28;20568;-74
2022/03/15 07:48:22;;;;;;;84.30;33.97;;;6.80;99.90;;;;;;5015538;28;20043;-74
2022/03/15 07:50:49;;;;;;;83.80;32.50;;;6.90;99.90;;;;;;5016549;28;20065;-73
2022/03/15 07:53:15;;;;;;;84.53;34.40;;;6.90;99.90;;;;;;5019970;28;20057;-76
2022/03/15 07:55:41;;;;;;;82.57;32.95;;;6.90;99.90;;;;;;5022299;28;20050;-74
2022/03/15 07:58:07;;;;;;;87.85;34.35;;;7.00;99.90;;;;;;5021768;28;20409;-74
2022/03/15 08:00:33;;;;;;;80.70;34.50;;;7.00;99.90;;;;;;5002135;28;20068;-73
2022/03/15 08:02:59;;;;;;;87.80;35.10;;;7.00;99.90;;;;;;5015357;28;20050;-73
2022/03/15 08:05:27;;;;;;;85.03;34.33;;;7.10;99.90;;;;;;5018074;28;20099;-77
2022/03/15 08:07:53;;;;;;;88.47;35.53;;;7.10;99.90;;;;;;5003452;28;20057;-74
2022/03/15 08:10:19;;;;;;;86.45;35.75;;;7.10;99.90;;;;;;5007302;28;20050;-74
2022/03/15 08:12:45;;;;;;;90.22;35.65;;;7.20;99.90;;;;;;4990023;28;20064;-75
2022/03/15 08:15:11;;;;;;;87.90;35.58;;;7.20;99.90;;;;;;5003141;28;20466;-75
2022/03/15 08:17:38;;;;;;;77.53;32.40;;;7.20;99.90;;;;;;5014989;28;20066;-76
2022/03/15 08:20:05;;;;;;;83.10;32.47;;;7.30;99.90;;;;;;4980941;28;20046;-74
2022/03/15 08:22:31;;;;;;;78.45;32.08;;;7.30;99.90;;;;;;4980017;28;20050;-74
2022/03/15 08:24:58;;;;;;;86.50;32.70;;;7.30;99.90;;;;;;4996585;28;20485;-74
2022/03/15 08:27:25;;;;;;;78.38;30.98;;;7.30;99.90;;;;;;5013824;28;20473;-74
2022/03/15 08:29:51;;;;;;;90.63;36.15;;;7.30;99.90;;;;;;5012681;28;20046;-73
2022/03/15 08:32:17;;;;;;;77.55;33.80;;;7.40;99.90;;;;;;5013682;28;20061;-74
2022/03/15 08:34:43;;;;;;;85.20;33.28;;;7.40;99.90;;;;;;4996277;28;20046;-74
2022/03/15 08:37:10;;;;;;;77.22;30.33;;;7.40;99.90;;;;;;5013466;28;20124;-75
2022/03/15 08:39:36;;;;;;;84.28;31.58;;;7.40;99.90;;;;;;4995950;28;20159;-74
2022/03/15 08:42:03;;;;;;;79.32;31.90;;;7.40;99.90;;;;;;5011961;28;20048;-74
2022/03/15 08:44:29;;;;;;;83.37;31.80;;;7.50;99.90;;;;;;5012320;28;20121;-75
2022/03/15 08:46:55;;;;;;;67.40;28.77;;;7.50;99.90;;;;;;4995809;28;20304;-75
2022/03/15 08:49:21;;;;;;;86.68;31.70;;;7.50;99.90;;;;;;4996112;28;20508;-74
2022/03/15 08:51:48;;;;;;;74.35;32.17;;;7.50;99.90;;;;;;4995683;28;20058;-74
2022/03/15 08:54:15;;;;;;;74.40;28.40;;;7.60;99.90;;;;;;5011988;28;20112;-74
2022/03/15 08:56:41;;;;;;;80.15;31.80;;;7.60;99.90;;;;;;4995431;28;20514;-76
2022/03/15 08:59:12;;;;;;;74.25;30.20;;;7.60;99.90;;;;;;5012058;28;20050;-76
2022/03/15 09:01:39;;;;;;;81.65;29.17;;;7.70;99.90;;;;;;5012816;28;20100;-75
2022/03/15 09:04:06;;;;;;;81.47;29.38;;;7.80;99.90;;;;;;5012321;28;20080;-74
2022/03/15 09:06:32;;;;;;;;;;;7.80;99.90;;;;;;4980534;28;20096;-78
2022/03/15 09:09:00;;;;;;;78.63;30.57;;;7.80;99.90;;;;;;5011689;28;19921;-74
2022/03/15 09:11:28;;;;;;;83.28;31.23;;;7.90;99.90;;;;;;5011900;28;20430;-75
2022/03/15 09:13:54;;;;;;;75.38;30.98;;;7.90;99.90;;;;;;4997982;28;20046;-74
2022/03/15 09:16:20;;;;;;;80.97;30.95;;;8.00;99.90;;;;;;5015468;28;20111;-73
2022/03/15 09:18:47;;;;;;;77.55;31.95;;;8.10;99.90;;;;;;4999405;28;20060;-73
2022/03/15 09:21:13;;;;;;;83.05;32.08;;;8.20;99.90;;;;;;5016024;28;20041;-76
2022/03/15 09:23:39;;;;;;;80.05;31.73;;;8.20;99.90;;;;;;5015177;28;20486;-74
2022/03/15 09:26:06;;;;;;;76.28;30.77;;;8.30;99.90;;;;;;4983137;28;20050;-74
2022/03/15 09:28:33;;;;;;;79.55;31.58;;;8.40;99.90;;;;;;5016644;28;20149;-74
2022/03/15 09:31:01;;;;;;;77.85;31.85;;;8.50;99.90;;;;;;4983130;28;20052;-74
2022/03/15 09:33:27;;;;;;;77.28;31.08;;;8.50;99.90;;;;;;4999241;28;20077;-74
2022/03/15 09:35:54;;;;;;;80.32;31.95;;;8.60;99.90;;;;;;4998259;28;20282;-77
2022/03/15 09:38:21;;;;;;;83.35;34.15;;;8.70;99.90;;;;;;5016323;28;20064;-74
2022/03/15 09:40:52;;;;;;;91.38;37.88;;;8.70;99.90;;;;;;4998919;28;20049;-74
2022/03/15 09:43:23;;;;;;;90.75;39.00;;;8.60;99.90;;;;;;5015426;28;20101;-74
2022/03/15 09:45:52;;;;;;;90.22;33.22;;;8.70;99.90;;;;;;5015406;28;20050;-73
2022/03/15 09:48:20;;;;;;;84.32;32.17;;;8.80;99.90;;;;;;5016142;28;20084;-74
2022/03/15 09:50:51;;;;;;;77.72;32.70;;;8.70;99.90;;;;;;5016240;28;20397;-73
2022/03/15 09:53:18;;;;;;;83.78;35.75;;;8.70;99.90;;;;;;5016702;28;20393;-73
2022/03/15 09:55:45;;;;;;;73.50;32.35;;;8.70;99.90;;;;;;5015105;28;20073;-73
2022/03/15 09:58:18;;;;;;;83.38;35.70;;;8.70;99.90;;;;;;4999437;28;20042;-74
2022/03/15 10:00:45;;;;;;;83.90;31.85;;;8.70;99.90;;;;;;5014425;28;20096;-74
2022/03/15 10:03:14;;;;;;;78.68;32.15;;;8.80;99.90;;;;;;5015130;28;20046;-74
2022/03/15 10:05:40;;;;;;;72.07;30.60;;;8.80;99.90;;;;;;4998154;28;20137;-77
2022/03/15 10:08:07;;;;;;;76.35;31.02;;;8.90;99.90;;;;;;4998241;28;20060;-74
2022/03/15 10:10:33;;;;;;;74.82;30.30;;;8.90;99.90;;;;;;4998534;28;20378;-75
2022/03/15 10:12:59;;;;;;;72.72;29.88;;;9.00;99.90;;;;;;4998745;28;20046;-74
2022/03/15 10:15:25;;;;;;;79.35;32.65;;;9.10;99.90;;;;;;4998099;28;20464;-74
2022/03/15 10:17:53;;;;;;;64.28;28.77;;;9.30;99.90;;;;;;5015323;28;20153;-73
2022/03/15 10:20:25;;;;;;;71.78;30.13;;;9.40;99.90;;;;;;4997947;28;20498;-74
2022/03/15 10:22:57;;;;;;;69.38;31.27;;;9.60;99.90;;;;;;5015760;28;20462;-73
2022/03/15 10:25:24;;;;;;;68.10;29.08;;;9.70;99.90;;;;;;5015130;28;20049;-72
2022/03/15 10:27:55;;;;;;;66.25;27.75;;;9.90;99.90;;;;;;5015602;28;20054;-73
2022/03/15 10:30:22;;;;;;;69.38;29.60;;;10.00;99.90;;;;;;5015296;28;20045;-73
2022/03/15 10:32:50;;;;;;;64.50;27.85;;;10.10;99.90;;;;;;5014133;28;20065;-73
2022/03/15 10:35:19;;;;;;;;;;;10.30;99.90;;;;;;5014979;28;20049;-73
2022/03/15 10:37:46;;;;;;;71.20;28.45;;;10.30;99.90;;;;;;5015452;28;20448;-77
2022/03/15 10:40:12;;;;;;;74.47;32.20;;;10.40;99.90;;;;;;5014808;28;20137;-74
2022/03/15 10:42:43;;;;;;;74.35;29.55;;;10.50;99.90;;;;;;4998146;28;20293;-74
2022/03/15 10:45:20;;;;;;;66.10;28.30;;;10.50;99.90;;;;;;5013954;28;20529;-78
2022/03/15 10:47:54;;;;;;;68.20;27.85;;;10.50;99.90;;;;;;4997794;28;20200;-74
2022/03/15 10:50:21;;;;;;;57.55;26.05;;;10.60;99.90;;;;;;4997543;28;20038;-74
2022/03/15 10:52:47;;;;;;;61.78;26.42;;;10.70;99.90;;;;;;5014110;28;20046;-75
2022/03/15 10:55:15;;;;;;;59.30;25.83;;;10.80;99.90;;;;;;4997425;28;20108;-74
2022/03/15 10:58:05;;;;;;;58.95;27.30;;;10.80;99.90;;;;;;5014730;28;20140;-74
2022/03/15 11:00:40;;;;;;;63.25;25.65;;;10.90;99.90;;;;;;4997931;28;20041;-73
2022/03/15 11:03:09;;;;;;;62.03;26.88;;;11.00;99.90;;;;;;5015266;28;20402;-74
2022/03/15 11:05:38;;;;;;;64.20;25.15;;;11.10;99.90;;;;;;5014762;28;20072;-74
2022/03/15 11:08:14;;;;;;;67.05;27.40;;;11.10;99.90;;;;;;4997638;28;20363;-74
2022/03/15 11:10:45;;;;;;;59.95;25.08;;;11.20;99.90;;;;;;5013816;28;20042;-74
2022/03/15 11:13:11;;;;;;;56.75;26.00;;;11.20;99.90;;;;;;5015416;28;20054;-73
2022/03/15 11:15:51;;;;;;;63.90;26.02;;;11.20;99.90;;;;;;5015240;28;20435;-73
2022/03/15 11:18:19;;;;;;;61.03;25.08;;;11.20;99.90;;;;;;5013689;28;20065;-73
2022/03/15 11:20:50;;;;;;;65.20;27.85;;;11.20;99.90;;;;;;4997663;28;20085;-76
2022/03/15 11:23:18;;;;;;;49.35;24.15;;;11.20;99.90;;;;;;5013829;28;20042;-75
2022/03/15 11:26:04;;;;;;;58.67;27.55;;;11.30;99.90;;;;;;5013441;28;20061;-74
2022/03/15 11:28:32;;;;;;;62.08;29.35;;;11.40;99.90;;;;;;4997019;28;20510;-76
2022/03/15 11:30:59;;;;;;;60.78;28.58;;;11.50;99.90;;;;;;5013477;28;20077;-74
2022/03/15 11:33:27;;;;;;;57.60;24.17;;;11.50;99.90;;;;;;5015022;28;20316;-75
2022/03/15 11:35:53;;;;;;;54.10;24.95;;;11.60;99.90;;;;;;5012528;28;20112;-73
2022/03/15 11:38:20;;;;;;;56.25;24.98;;;11.60;99.90;;;;;;5013610;28;20053;-73
2022/03/15 11:40:51;;;;;;;57.55;23.73;;;11.60;99.90;;;;;;5013266;28;20045;-75
2022/03/15 11:43:38;;;;;;;53.67;24.80;;;11.70;99.90;;;;;;4996630;28;20049;-74
2022/03/15 11:46:21;;;;;;;59.53;24.58;;;11.70;99.90;;;;;;4996785;28;20050;-73
2022/03/15 11:48:53;;;;;;;50.95;23.15;;;11.70;99.90;;;;;;5012766;28;20064;-76
2022/03/15 11:51:37;;;;;;;53.65;23.50;;;11.60;99.90;;;;;;5013259;28;20136;-73
2022/03/15 11:54:40;;;;;;;52.85;23.77;;;11.70;99.90;;;;;;5012794;28;20050;-75
2022/03/15 11:57:17;;;;;;;60.50;24.42;;;11.70;99.90;;;;;;5013088;28;20508;-74
2022/03/15 11:59:55;;;;;;;51.20;23.70;;;11.80;99.90;;;;;;5014902;28;20053;-74
2022/03/15 12:02:38;;;;;;;53.80;23.08;;;11.90;99.90;;;;;;4996670;28;20045;-74
2022/03/15 12:05:20;;;;;;;54.85;23.02;;;12.00;99.90;;;;;;4996940;28;20100;-79
2022/03/15 12:08:05;;;;;;;65.93;27.70;;;12.10;99.90;;;;;;5014361;28;20046;-74
2022/03/15 12:10:37;;;;;;;64.07;29.27;;;12.20;99.90;;;;;;5014611;28;20367;-74
2022/03/15 12:13:05;;;;;;;62.65;28.02;;;12.40;99.90;;;;;;4996611;28;20053;-73
2022/03/15 12:15:39;;;;;;;52.30;23.65;;;12.50;99.90;;;;;;5013127;28;20050;-74
2022/03/15 12:18:28;;;;;;;55.38;23.20;;;12.50;99.90;;;;;;5013605;28;20041;-76
2022/03/15 12:21:08;;;;;;;59.20;22.02;;;12.60;99.90;;;;;;4996866;28;20046;-78
2022/03/15 12:23:44;;;;;;;51.00;22.33;;;12.60;99.90;;;;;;5013717;28;20046;-74
2022/03/15 12:26:29;;;;;;;52.10;22.93;;;12.70;99.90;;;;;;5012802;28;20046;-75
2022/03/15 12:29:03;;;;;;;54.83;24.70;;;12.70;99.90;;;;;;4996363;28;20099;-79
2022/03/15 12:31:41;;;;;;;58.05;25.17;;;12.80;99.90;;;;;;4996920;28;20061;-74
2022/03/15 12:34:12;;;;;;;60.25;23.60;;;12.90;99.90;;;;;;5012921;28;20057;-75
2022/03/15 12:36:58;;;;;;;54.60;24.10;;;12.90;99.90;;;;;;5013887;28;20053;-74
2022/03/15 12:39:32;;;;;;;52.05;23.33;;;12.90;99.90;;;;;;5011772;28;20133;-74